sensor_id;sensor_type;location;lat;lon;timestamp;P1;durP1;ratioP1;P2;durP2;ratioP2
57565;SDS011;63999;43.882;-0.310;2022-12-20T00:00:44;11.15;;;4.07;;
57565;SDS011;63999;43.882;-0.310;2022-12-20T00:03:10;15.55;;;3.95;;
57565;SDS011;63999;43.882;-0.310;2022-12-20T00:05:39;13.10;;;3.60;;
57565;SDS011;63999;43.882;-0.310;2022-12-20T00:08:06;11.75;;;3.65;;
57565;SDS011;63999;43.882;-0.310;2022-12-20T00:10:36;12.85;;;4.03;;
57565;SDS011;63999;43.882;-0.310;2022-12-20T00:13:02;16.77;;;3.72;;
57565;SDS011;63999;43.882;-0.310;2022-12-20T00:15:28;11.52;;;3.55;;
57565;SDS011;63999;43.882;-0.310;2022-12-20T00:17:56;11.95;;;3.92;;
57565;SDS011;63999;43.882;-0.310;2022-12-20T00:20:23;12.55;;;4.05;;
57565;SDS011;63999;43.882;-0.310;2022-12-20T00:22:49;14.48;;;4.18;;
57565;SDS011;63999;43.882;-0.310;2022-12-20T00:25:16;11.90;;;3.80;;
57565;SDS011;63999;43.882;-0.310;2022-12-20T00:27:42;11.93;;;3.75;;
57565;SDS011;63999;43.882;-0.310;2022-12-20T00:30:09;11.90;;;3.45;;
57565;SDS011;63999;43.882;-0.310;2022-12-20T00:32:36;10.82;;;3.53;;
57565;SDS011;63999;43.882;-0.310;2022-12-20T00:35:02;10.35;;;3.10;;
57565;SDS011;63999;43.882;-0.310;2022-12-20T00:37:28;12.35;;;3.15;;
57565;SDS011;63999;43.882;-0.310;2022-12-20T00:39:54;9.73;;;3.67;;
57565;SDS011;63999;43.882;-0.310;2022-12-20T00:42:20;12.57;;;3.53;;
57565;SDS011;63999;43.882;-0.310;2022-12-20T00:44:46;10.50;;;3.50;;
57565;SDS011;63999;43.882;-0.310;2022-12-20T00:47:13;13.25;;;3.50;;
57565;SDS011;63999;43.882;-0.310;2022-12-20T00:49:39;13.35;;;3.75;;
57565;SDS011;63999;43.882;-0.310;2022-12-20T00:52:05;12.98;;;3.13;;
57565;SDS011;63999;43.882;-0.310;2022-12-20T00:54:31;11.43;;;3.90;;
57565;SDS011;63999;43.882;-0.310;2022-12-20T00:56:57;12.57;;;3.60;;
57565;SDS011;63999;43.882;-0.310;2022-12-20T00:59:23;13.95;;;3.60;;
57565;SDS011;63999;43.882;-0.310;2022-12-20T01:01:49;13.25;;;3.70;;
57565;SDS011;63999;43.882;-0.310;2022-12-20T01:04:16;14.18;;;3.67;;
57565;SDS011;63999;43.882;-0.310;2022-12-20T01:06:41;8.32;;;3.53;;
57565;SDS011;63999;43.882;-0.310;2022-12-20T01:09:07;12.88;;;3.60;;
57565;SDS011;63999;43.882;-0.310;2022-12-20T01:11:34;14.05;;;3.90;;
57565;SDS011;63999;43.882;-0.310;2022-12-20T01:14:02;9.82;;;3.50;;
57565;SDS011;63999;43.882;-0.310;2022-12-20T01:16:36;8.93;;;3.47;;
57565;SDS011;63999;43.882;-0.310;2022-12-20T01:19:05;9.63;;;3.40;;
57565;SDS011;63999;43.882;-0.310;2022-12-20T01:21:32;11.57;;;3.70;;
57565;SDS011;63999;43.882;-0.310;2022-12-20T01:23:58;12.50;;;3.75;;
57565;SDS011;63999;43.882;-0.310;2022-12-20T01:26:25;15.60;;;3.80;;
57565;SDS011;63999;43.882;-0.310;2022-12-20T01:28:53;12.55;;;3.97;;
57565;SDS011;63999;43.882;-0.310;2022-12-20T01:31:21;13.30;;;3.80;;
57565;SDS011;63999;43.882;-0.310;2022-12-20T01:33:47;10.25;;;3.33;;
57565;SDS011;63999;43.882;-0.310;2022-12-20T01:36:15;12.00;;;3.40;;
57565;SDS011;63999;43.882;-0.310;2022-12-20T01:38:42;10.98;;;3.65;;
57565;SDS011;63999;43.882;-0.310;2022-12-20T01:41:19;13.85;;;4.38;;
57565;SDS011;63999;43.882;-0.310;2022-12-20T01:43:53;13.73;;;3.88;;
57565;SDS011;63999;43.882;-0.310;2022-12-20T01:46:24;13.18;;;3.55;;
57565;SDS011;63999;43.882;-0.310;2022-12-20T01:48:57;18.15;;;3.58;;
57565;SDS011;63999;43.882;-0.310;2022-12-20T01:51:28;13.38;;;4.03;;
57565;SDS011;63999;43.882;-0.310;2022-12-20T01:54:01;9.88;;;3.38;;
57565;SDS011;63999;43.882;-0.310;2022-12-20T01:56:34;13.73;;;3.75;;
57565;SDS011;63999;43.882;-0.310;2022-12-20T01:59:01;11.77;;;3.70;;
57565;SDS011;63999;43.882;-0.310;2022-12-20T02:01:28;11.98;;;3.85;;
57565;SDS011;63999;43.882;-0.310;2022-12-20T02:03:54;10.50;;;3.30;;
57565;SDS011;63999;43.882;-0.310;2022-12-20T02:06:21;12.02;;;3.67;;
57565;SDS011;63999;43.882;-0.310;2022-12-20T02:08:49;10.65;;;3.60;;
57565;SDS011;63999;43.882;-0.310;2022-12-20T02:11:23;8.15;;;3.40;;
57565;SDS011;63999;43.882;-0.310;2022-12-20T02:17:06;11.52;;;3.60;;
57565;SDS011;63999;43.882;-0.310;2022-12-20T02:22:22;17.40;;;3.45;;
57565;SDS011;63999;43.882;-0.310;2022-12-20T02:30:31;10.95;;;3.50;;
57565;SDS011;63999;43.882;-0.310;2022-12-20T02:33:03;11.27;;;3.50;;
57565;SDS011;63999;43.882;-0.310;2022-12-20T02:35:35;13.13;;;4.25;;
57565;SDS011;63999;43.882;-0.310;2022-12-20T02:38:03;10.70;;;3.60;;
57565;SDS011;63999;43.882;-0.310;2022-12-20T02:40:50;11.88;;;3.80;;
57565;SDS011;63999;43.882;-0.310;2022-12-20T02:43:38;12.95;;;3.92;;
57565;SDS011;63999;43.882;-0.310;2022-12-20T02:46:25;13.07;;;4.00;;
57565;SDS011;63999;43.882;-0.310;2022-12-20T02:48:52;10.98;;;3.38;;
57565;SDS011;63999;43.882;-0.310;2022-12-20T02:51:22;13.23;;;3.70;;
57565;SDS011;63999;43.882;-0.310;2022-12-20T02:53:50;10.13;;;3.60;;
57565;SDS011;63999;43.882;-0.310;2022-12-20T02:59:22;15.60;;;4.10;;
57565;SDS011;63999;43.882;-0.310;2022-12-20T03:01:54;11.45;;;4.00;;
57565;SDS011;63999;43.882;-0.310;2022-12-20T03:04:22;13.30;;;3.80;;
57565;SDS011;63999;43.882;-0.310;2022-12-20T03:09:23;10.82;;;3.45;;
57565;SDS011;63999;43.882;-0.310;2022-12-20T03:11:50;10.82;;;3.85;;
57565;SDS011;63999;43.882;-0.310;2022-12-20T03:14:16;12.73;;;3.90;;
57565;SDS011;63999;43.882;-0.310;2022-12-20T03:16:42;8.27;;;2.97;;
57565;SDS011;63999;43.882;-0.310;2022-12-20T03:19:07;11.75;;;3.50;;
57565;SDS011;63999;43.882;-0.310;2022-12-20T03:21:33;11.13;;;3.60;;
57565;SDS011;63999;43.882;-0.310;2022-12-20T03:23:59;11.68;;;3.47;;
57565;SDS011;63999;43.882;-0.310;2022-12-20T03:26:24;8.38;;;3.75;;
57565;SDS011;63999;43.882;-0.310;2022-12-20T03:28:50;13.05;;;3.83;;
57565;SDS011;63999;43.882;-0.310;2022-12-20T03:31:18;12.98;;;3.60;;
57565;SDS011;63999;43.882;-0.310;2022-12-20T03:33:44;8.70;;;3.60;;
57565;SDS011;63999;43.882;-0.310;2022-12-20T03:36:10;9.18;;;3.55;;
57565;SDS011;63999;43.882;-0.310;2022-12-20T03:41:48;12.05;;;3.78;;
57565;SDS011;63999;43.882;-0.310;2022-12-20T03:44:14;11.15;;;3.90;;
57565;SDS011;63999;43.882;-0.310;2022-12-20T03:46:40;17.05;;;4.20;;
57565;SDS011;63999;43.882;-0.310;2022-12-20T03:49:05;9.27;;;4.10;;
57565;SDS011;63999;43.882;-0.310;2022-12-20T03:51:31;8.85;;;3.67;;
57565;SDS011;63999;43.882;-0.310;2022-12-20T03:53:57;9.95;;;3.42;;
57565;SDS011;63999;43.882;-0.310;2022-12-20T03:56:23;16.08;;;3.80;;
57565;SDS011;63999;43.882;-0.310;2022-12-20T03:58:48;13.55;;;3.67;;
57565;SDS011;63999;43.882;-0.310;2022-12-20T04:01:21;14.30;;;3.80;;
57565;SDS011;63999;43.882;-0.310;2022-12-20T04:03:49;8.32;;;3.33;;
57565;SDS011;63999;43.882;-0.310;2022-12-20T04:06:15;8.52;;;3.58;;
57565;SDS011;63999;43.882;-0.310;2022-12-20T04:08:42;10.43;;;3.78;;
57565;SDS011;63999;43.882;-0.310;2022-12-20T04:11:08;10.43;;;3.78;;
57565;SDS011;63999;43.882;-0.310;2022-12-20T04:13:40;10.00;;;3.80;;
57565;SDS011;63999;43.882;-0.310;2022-12-20T04:16:07;10.25;;;3.60;;
57565;SDS011;63999;43.882;-0.310;2022-12-20T04:18:33;9.20;;;3.80;;
57565;SDS011;63999;43.882;-0.310;2022-12-20T04:20:59;10.45;;;3.75;;
57565;SDS011;63999;43.882;-0.310;2022-12-20T04:23:25;7.57;;;3.30;;
57565;SDS011;63999;43.882;-0.310;2022-12-20T04:25:51;9.48;;;3.75;;
57565;SDS011;63999;43.882;-0.310;2022-12-20T04:28:17;13.48;;;3.80;;
57565;SDS011;63999;43.882;-0.310;2022-12-20T04:30:42;8.10;;;3.67;;
57565;SDS011;63999;43.882;-0.310;2022-12-20T04:33:08;9.05;;;3.53;;
57565;SDS011;63999;43.882;-0.310;2022-12-20T04:35:35;9.93;;;3.78;;
57565;SDS011;63999;43.882;-0.310;2022-12-20T04:38:01;8.35;;;3.63;;
57565;SDS011;63999;43.882;-0.310;2022-12-20T04:40:27;9.77;;;4.18;;
57565;SDS011;63999;43.882;-0.310;2022-12-20T04:42:53;9.32;;;3.65;;
57565;SDS011;63999;43.882;-0.310;2022-12-20T04:45:18;7.20;;;3.00;;
57565;SDS011;63999;43.882;-0.310;2022-12-20T04:47:44;11.48;;;3.60;;
57565;SDS011;63999;43.882;-0.310;2022-12-20T04:50:10;9.75;;;3.70;;
57565;SDS011;63999;43.882;-0.310;2022-12-20T04:52:36;9.60;;;3.40;;
57565;SDS011;63999;43.882;-0.310;2022-12-20T04:55:20;10.25;;;3.45;;
57565;SDS011;63999;43.882;-0.310;2022-12-20T04:57:46;10.10;;;3.55;;
57565;SDS011;63999;43.882;-0.310;2022-12-20T05:00:13;8.65;;;3.50;;
57565;SDS011;63999;43.882;-0.310;2022-12-20T05:02:39;8.35;;;3.60;;
57565;SDS011;63999;43.882;-0.310;2022-12-20T05:05:06;10.15;;;3.65;;
57565;SDS011;63999;43.882;-0.310;2022-12-20T05:07:32;9.07;;;3.63;;
57565;SDS011;63999;43.882;-0.310;2022-12-20T05:09:57;11.55;;;3.75;;
57565;SDS011;63999;43.882;-0.310;2022-12-20T05:12:23;9.35;;;3.35;;
57565;SDS011;63999;43.882;-0.310;2022-12-20T05:14:49;10.75;;;4.05;;
57565;SDS011;63999;43.882;-0.310;2022-12-20T05:17:15;10.77;;;3.70;;
57565;SDS011;63999;43.882;-0.310;2022-12-20T05:19:41;9.13;;;3.80;;
57565;SDS011;63999;43.882;-0.310;2022-12-20T05:22:08;9.55;;;3.63;;
57565;SDS011;63999;43.882;-0.310;2022-12-20T05:24:53;12.98;;;4.18;;
57565;SDS011;63999;43.882;-0.310;2022-12-20T05:27:38;9.35;;;3.65;;
57565;SDS011;63999;43.882;-0.310;2022-12-20T05:30:04;10.20;;;3.55;;
57565;SDS011;63999;43.882;-0.310;2022-12-20T05:32:30;5.82;;;3.30;;
57565;SDS011;63999;43.882;-0.310;2022-12-20T05:34:56;8.30;;;4.07;;
57565;SDS011;63999;43.882;-0.310;2022-12-20T05:37:22;9.50;;;3.63;;
57565;SDS011;63999;43.882;-0.310;2022-12-20T05:39:47;7.50;;;3.47;;
57565;SDS011;63999;43.882;-0.310;2022-12-20T05:42:14;9.65;;;3.60;;
57565;SDS011;63999;43.882;-0.310;2022-12-20T05:44:40;9.30;;;3.70;;
57565;SDS011;63999;43.882;-0.310;2022-12-20T05:47:06;9.07;;;3.47;;
57565;SDS011;63999;43.882;-0.310;2022-12-20T05:49:32;8.48;;;3.10;;
57565;SDS011;63999;43.882;-0.310;2022-12-20T05:51:58;7.18;;;3.55;;
57565;SDS011;63999;43.882;-0.310;2022-12-20T05:54:25;10.45;;;3.85;;
57565;SDS011;63999;43.882;-0.310;2022-12-20T05:56:50;11.45;;;3.83;;
57565;SDS011;63999;43.882;-0.310;2022-12-20T05:59:16;8.90;;;3.50;;
57565;SDS011;63999;43.882;-0.310;2022-12-20T06:01:42;6.05;;;3.55;;
57565;SDS011;63999;43.882;-0.310;2022-12-20T06:04:08;8.55;;;3.40;;
57565;SDS011;63999;43.882;-0.310;2022-12-20T06:06:34;10.23;;;3.55;;
57565;SDS011;63999;43.882;-0.310;2022-12-20T06:08:59;7.47;;;3.65;;
57565;SDS011;63999;43.882;-0.310;2022-12-20T06:11:26;5.75;;;3.13;;
57565;SDS011;63999;43.882;-0.310;2022-12-20T06:13:53;7.20;;;3.67;;
57565;SDS011;63999;43.882;-0.310;2022-12-20T06:16:19;7.80;;;3.63;;
57565;SDS011;63999;43.882;-0.310;2022-12-20T06:18:46;8.48;;;3.28;;
57565;SDS011;63999;43.882;-0.310;2022-12-20T06:21:12;8.55;;;3.45;;
57565;SDS011;63999;43.882;-0.310;2022-12-20T06:23:38;6.75;;;3.10;;
57565;SDS011;63999;43.882;-0.310;2022-12-20T06:26:04;7.45;;;3.50;;
57565;SDS011;63999;43.882;-0.310;2022-12-20T06:28:33;5.90;;;3.60;;
57565;SDS011;63999;43.882;-0.310;2022-12-20T06:31:00;6.63;;;3.38;;
57565;SDS011;63999;43.882;-0.310;2022-12-20T06:33:26;6.78;;;3.55;;
57565;SDS011;63999;43.882;-0.310;2022-12-20T06:35:51;7.60;;;3.72;;
57565;SDS011;63999;43.882;-0.310;2022-12-20T06:38:17;10.18;;;4.05;;
57565;SDS011;63999;43.882;-0.310;2022-12-20T06:40:43;8.25;;;3.25;;
57565;SDS011;63999;43.882;-0.310;2022-12-20T06:43:09;7.90;;;4.05;;
57565;SDS011;63999;43.882;-0.310;2022-12-20T06:45:34;8.55;;;3.65;;
57565;SDS011;63999;43.882;-0.310;2022-12-20T06:48:00;6.30;;;4.05;;
57565;SDS011;63999;43.882;-0.310;2022-12-20T06:50:26;8.82;;;3.72;;
57565;SDS011;63999;43.882;-0.310;2022-12-20T06:52:52;7.28;;;3.83;;
57565;SDS011;63999;43.882;-0.310;2022-12-20T06:55:18;7.88;;;3.85;;
57565;SDS011;63999;43.882;-0.310;2022-12-20T06:57:43;12.88;;;3.55;;
57565;SDS011;63999;43.882;-0.310;2022-12-20T07:00:10;7.88;;;3.85;;
57565;SDS011;63999;43.882;-0.310;2022-12-20T07:02:37;8.38;;;3.67;;
57565;SDS011;63999;43.882;-0.310;2022-12-20T07:05:03;7.95;;;4.53;;
57565;SDS011;63999;43.882;-0.310;2022-12-20T07:07:30;6.85;;;4.18;;
57565;SDS011;63999;43.882;-0.310;2022-12-20T07:09:59;6.90;;;3.65;;
57565;SDS011;63999;43.882;-0.310;2022-12-20T07:12:25;6.05;;;3.85;;
57565;SDS011;63999;43.882;-0.310;2022-12-20T07:14:51;11.43;;;4.10;;
57565;SDS011;63999;43.882;-0.310;2022-12-20T07:17:16;7.28;;;3.88;;
57565;SDS011;63999;43.882;-0.310;2022-12-20T07:19:42;7.97;;;4.70;;
57565;SDS011;63999;43.882;-0.310;2022-12-20T07:22:08;9.73;;;3.92;;
57565;SDS011;63999;43.882;-0.310;2022-12-20T07:24:34;6.32;;;4.00;;
57565;SDS011;63999;43.882;-0.310;2022-12-20T07:27:00;8.00;;;4.00;;
57565;SDS011;63999;43.882;-0.310;2022-12-20T07:29:26;6.78;;;3.90;;
57565;SDS011;63999;43.882;-0.310;2022-12-20T07:31:52;8.63;;;4.28;;
57565;SDS011;63999;43.882;-0.310;2022-12-20T07:34:18;8.02;;;3.90;;
57565;SDS011;63999;43.882;-0.310;2022-12-20T07:36:44;8.45;;;4.30;;
57565;SDS011;63999;43.882;-0.310;2022-12-20T07:39:10;7.45;;;3.65;;
57565;SDS011;63999;43.882;-0.310;2022-12-20T07:41:35;9.55;;;4.13;;
57565;SDS011;63999;43.882;-0.310;2022-12-20T07:44:01;5.28;;;3.85;;
57565;SDS011;63999;43.882;-0.310;2022-12-20T07:46:27;7.97;;;4.10;;
57565;SDS011;63999;43.882;-0.310;2022-12-20T07:48:54;7.30;;;4.38;;
57565;SDS011;63999;43.882;-0.310;2022-12-20T07:51:20;10.60;;;4.07;;
57565;SDS011;63999;43.882;-0.310;2022-12-20T07:53:56;6.93;;;4.22;;
57565;SDS011;63999;43.882;-0.310;2022-12-20T07:56:26;6.88;;;4.07;;
57565;SDS011;63999;43.882;-0.310;2022-12-20T07:58:53;6.32;;;3.90;;
57565;SDS011;63999;43.882;-0.310;2022-12-20T08:01:23;7.60;;;4.00;;
57565;SDS011;63999;43.882;-0.310;2022-12-20T08:03:52;7.78;;;3.67;;
57565;SDS011;63999;43.882;-0.310;2022-12-20T08:06:32;6.90;;;3.88;;
57565;SDS011;63999;43.882;-0.310;2022-12-20T08:09:02;8.43;;;4.30;;
57565;SDS011;63999;43.882;-0.310;2022-12-20T08:11:30;8.30;;;4.55;;
57565;SDS011;63999;43.882;-0.310;2022-12-20T08:13:59;10.23;;;4.53;;
57565;SDS011;63999;43.882;-0.310;2022-12-20T08:16:25;5.47;;;3.65;;
57565;SDS011;63999;43.882;-0.310;2022-12-20T08:18:52;8.38;;;4.13;;
57565;SDS011;63999;43.882;-0.310;2022-12-20T08:21:18;9.27;;;4.60;;
57565;SDS011;63999;43.882;-0.310;2022-12-20T08:23:44;6.43;;;3.97;;
57565;SDS011;63999;43.882;-0.310;2022-12-20T08:26:10;7.75;;;4.20;;
57565;SDS011;63999;43.882;-0.310;2022-12-20T08:28:36;6.97;;;3.95;;
57565;SDS011;63999;43.882;-0.310;2022-12-20T08:31:06;7.15;;;4.13;;
57565;SDS011;63999;43.882;-0.310;2022-12-20T08:33:37;9.30;;;4.00;;
57565;SDS011;63999;43.882;-0.310;2022-12-20T08:36:10;6.85;;;4.30;;
57565;SDS011;63999;43.882;-0.310;2022-12-20T08:38:37;7.07;;;3.97;;
57565;SDS011;63999;43.882;-0.310;2022-12-20T08:41:10;10.23;;;4.60;;
57565;SDS011;63999;43.882;-0.310;2022-12-20T08:43:37;9.05;;;4.15;;
57565;SDS011;63999;43.882;-0.310;2022-12-20T08:46:08;7.95;;;4.20;;
57565;SDS011;63999;43.882;-0.310;2022-12-20T08:48:36;9.18;;;4.40;;
57565;SDS011;63999;43.882;-0.310;2022-12-20T08:51:03;7.47;;;4.35;;
57565;SDS011;63999;43.882;-0.310;2022-12-20T08:53:33;6.47;;;3.53;;
57565;SDS011;63999;43.882;-0.310;2022-12-20T08:56:06;8.88;;;4.50;;
57565;SDS011;63999;43.882;-0.310;2022-12-20T08:58:37;6.88;;;4.03;;
57565;SDS011;63999;43.882;-0.310;2022-12-20T09:01:04;6.68;;;4.05;;
57565;SDS011;63999;43.882;-0.310;2022-12-20T09:03:33;7.07;;;4.22;;
57565;SDS011;63999;43.882;-0.310;2022-12-20T09:06:00;7.75;;;4.05;;
57565;SDS011;63999;43.882;-0.310;2022-12-20T09:08:30;9.13;;;4.13;;
57565;SDS011;63999;43.882;-0.310;2022-12-20T09:11:08;10.23;;;4.38;;
57565;SDS011;63999;43.882;-0.310;2022-12-20T09:13:36;6.68;;;4.25;;
57565;SDS011;63999;43.882;-0.310;2022-12-20T09:16:04;6.97;;;3.92;;
57565;SDS011;63999;43.882;-0.310;2022-12-20T09:18:31;7.00;;;4.07;;
57565;SDS011;63999;43.882;-0.310;2022-12-20T09:21:04;7.65;;;4.05;;
57565;SDS011;63999;43.882;-0.310;2022-12-20T09:23:31;6.75;;;3.80;;
57565;SDS011;63999;43.882;-0.310;2022-12-20T09:26:05;10.52;;;4.00;;
57565;SDS011;63999;43.882;-0.310;2022-12-20T09:28:34;9.18;;;4.28;;
57565;SDS011;63999;43.882;-0.310;2022-12-20T09:31:00;6.93;;;3.38;;
57565;SDS011;63999;43.882;-0.310;2022-12-20T09:33:27;7.82;;;3.78;;
57565;SDS011;63999;43.882;-0.310;2022-12-20T09:35:55;8.82;;;3.97;;
57565;SDS011;63999;43.882;-0.310;2022-12-20T09:38:21;6.90;;;4.20;;
57565;SDS011;63999;43.882;-0.310;2022-12-20T09:40:52;5.35;;;3.30;;
57565;SDS011;63999;43.882;-0.310;2022-12-20T09:45:46;6.63;;;4.28;;
57565;SDS011;63999;43.882;-0.310;2022-12-20T09:48:16;6.30;;;4.20;;
57565;SDS011;63999;43.882;-0.310;2022-12-20T09:56:29;10.82;;;3.83;;
57565;SDS011;63999;43.882;-0.310;2022-12-20T09:59:14;6.22;;;3.47;;
57565;SDS011;63999;43.882;-0.310;2022-12-20T10:01:44;8.30;;;4.03;;
57565;SDS011;63999;43.882;-0.310;2022-12-20T10:04:21;7.95;;;4.10;;
57565;SDS011;63999;43.882;-0.310;2022-12-20T10:09:38;7.82;;;4.10;;
57565;SDS011;63999;43.882;-0.310;2022-12-20T10:15:13;8.88;;;4.50;;
57565;SDS011;63999;43.882;-0.310;2022-12-20T10:17:57;6.72;;;4.22;;
57565;SDS011;63999;43.882;-0.310;2022-12-20T10:26:00;8.35;;;4.10;;
57565;SDS011;63999;43.882;-0.310;2022-12-20T10:28:33;8.10;;;3.92;;
57565;SDS011;63999;43.882;-0.310;2022-12-20T10:31:06;9.23;;;3.90;;
57565;SDS011;63999;43.882;-0.310;2022-12-20T10:33:38;9.60;;;4.13;;
57565;SDS011;63999;43.882;-0.310;2022-12-20T10:38:59;5.72;;;4.13;;
57565;SDS011;63999;43.882;-0.310;2022-12-20T10:41:28;8.05;;;3.92;;
57565;SDS011;63999;43.882;-0.310;2022-12-20T10:44:03;6.70;;;4.07;;
57565;SDS011;63999;43.882;-0.310;2022-12-20T10:46:42;8.45;;;4.00;;
57565;SDS011;63999;43.882;-0.310;2022-12-20T10:49:27;8.65;;;4.28;;
57565;SDS011;63999;43.882;-0.310;2022-12-20T10:51:57;7.38;;;3.92;;
57565;SDS011;63999;43.882;-0.310;2022-12-20T10:56:54;8.32;;;4.55;;
57565;SDS011;63999;43.882;-0.310;2022-12-20T10:59:43;7.40;;;3.97;;
57565;SDS011;63999;43.882;-0.310;2022-12-20T11:02:28;9.15;;;4.45;;
57565;SDS011;63999;43.882;-0.310;2022-12-20T11:07:35;10.75;;;5.00;;
57565;SDS011;63999;43.882;-0.310;2022-12-20T11:10:20;9.68;;;5.15;;
57565;SDS011;63999;43.882;-0.310;2022-12-20T11:12:55;7.45;;;4.68;;
57565;SDS011;63999;43.882;-0.310;2022-12-20T11:15:25;7.63;;;4.13;;
57565;SDS011;63999;43.882;-0.310;2022-12-20T11:20:42;8.05;;;4.25;;
57565;SDS011;63999;43.882;-0.310;2022-12-20T11:28:35;8.30;;;4.97;;
57565;SDS011;63999;43.882;-0.310;2022-12-20T11:39:04;7.60;;;4.70;;
57565;SDS011;63999;43.882;-0.310;2022-12-20T11:41:58;8.43;;;4.72;;
57565;SDS011;63999;43.882;-0.310;2022-12-20T11:44:48;8.75;;;4.25;;
57565;SDS011;63999;43.882;-0.310;2022-12-20T11:53:06;7.72;;;4.93;;
57565;SDS011;63999;43.882;-0.310;2022-12-20T11:55:41;8.88;;;4.68;;
57565;SDS011;63999;43.882;-0.310;2022-12-20T11:58:21;7.30;;;4.72;;
57565;SDS011;63999;43.882;-0.310;2022-12-20T12:00:55;6.88;;;4.72;;
57565;SDS011;63999;43.882;-0.310;2022-12-20T12:03:33;10.63;;;5.70;;
57565;SDS011;63999;43.882;-0.310;2022-12-20T12:11:46;8.70;;;5.07;;
57565;SDS011;63999;43.882;-0.310;2022-12-20T12:16:54;12.68;;;5.82;;
57565;SDS011;63999;43.882;-0.310;2022-12-20T12:19:25;7.35;;;4.10;;
57565;SDS011;63999;43.882;-0.310;2022-12-20T12:21:56;7.97;;;4.50;;
57565;SDS011;63999;43.882;-0.310;2022-12-20T12:24:32;8.85;;;4.80;;
57565;SDS011;63999;43.882;-0.310;2022-12-20T12:27:03;9.10;;;5.18;;
57565;SDS011;63999;43.882;-0.310;2022-12-20T12:29:31;6.72;;;5.15;;
57565;SDS011;63999;43.882;-0.310;2022-12-20T12:32:14;9.07;;;4.40;;
57565;SDS011;63999;43.882;-0.310;2022-12-20T12:37:33;9.30;;;5.40;;
57565;SDS011;63999;43.882;-0.310;2022-12-20T12:45:36;11.18;;;5.15;;
57565;SDS011;63999;43.882;-0.310;2022-12-20T12:50:47;8.25;;;5.32;;
57565;SDS011;63999;43.882;-0.310;2022-12-20T12:55:51;9.73;;;5.10;;
57565;SDS011;63999;43.882;-0.310;2022-12-20T13:11:28;8.13;;;5.40;;
57565;SDS011;63999;43.882;-0.310;2022-12-20T13:16:48;9.00;;;5.75;;
57565;SDS011;63999;43.882;-0.310;2022-12-20T13:22:35;6.93;;;4.90;;
57565;SDS011;63999;43.882;-0.310;2022-12-20T13:27:28;9.25;;;5.10;;
57565;SDS011;63999;43.882;-0.310;2022-12-20T13:35:43;6.40;;;4.30;;
57565;SDS011;63999;43.882;-0.310;2022-12-20T13:44:00;8.13;;;4.70;;
57565;SDS011;63999;43.882;-0.310;2022-12-20T13:46:52;9.68;;;6.32;;
57565;SDS011;63999;43.882;-0.310;2022-12-20T13:49:55;6.18;;;4.60;;
57565;SDS011;63999;43.882;-0.310;2022-12-20T13:54:59;7.68;;;4.50;;
57565;SDS011;63999;43.882;-0.310;2022-12-20T13:57:41;6.72;;;4.45;;
57565;SDS011;63999;43.882;-0.310;2022-12-20T14:00:15;7.28;;;4.43;;
57565;SDS011;63999;43.882;-0.310;2022-12-20T14:02:43;5.13;;;4.30;;
57565;SDS011;63999;43.882;-0.310;2022-12-20T14:05:14;6.00;;;4.10;;
57565;SDS011;63999;43.882;-0.310;2022-12-20T14:07:44;6.13;;;3.97;;
57565;SDS011;63999;43.882;-0.310;2022-12-20T14:10:20;7.80;;;4.68;;
57565;SDS011;63999;43.882;-0.310;2022-12-20T14:12:52;8.55;;;5.03;;
57565;SDS011;63999;43.882;-0.310;2022-12-20T14:15:20;11.65;;;5.40;;
57565;SDS011;63999;43.882;-0.310;2022-12-20T14:17:47;10.10;;;5.30;;
57565;SDS011;63999;43.882;-0.310;2022-12-20T14:20:33;9.10;;;4.70;;
57565;SDS011;63999;43.882;-0.310;2022-12-20T14:23:02;6.95;;;4.90;;
57565;SDS011;63999;43.882;-0.310;2022-12-20T14:25:45;7.35;;;4.63;;
57565;SDS011;63999;43.882;-0.310;2022-12-20T14:30:57;5.18;;;4.13;;
57565;SDS011;63999;43.882;-0.310;2022-12-20T14:33:35;9.45;;;4.50;;
57565;SDS011;63999;43.882;-0.310;2022-12-20T14:38:46;6.68;;;4.50;;
57565;SDS011;63999;43.882;-0.310;2022-12-20T14:44:17;9.07;;;4.47;;
57565;SDS011;63999;43.882;-0.310;2022-12-20T14:46:47;5.68;;;3.78;;
57565;SDS011;63999;43.882;-0.310;2022-12-20T14:51:46;9.63;;;4.40;;
57565;SDS011;63999;43.882;-0.310;2022-12-20T14:54:17;6.72;;;4.25;;
57565;SDS011;63999;43.882;-0.310;2022-12-20T14:56:45;6.75;;;4.45;;
57565;SDS011;63999;43.882;-0.310;2022-12-20T14:59:15;6.65;;;4.28;;
57565;SDS011;63999;43.882;-0.310;2022-12-20T15:01:49;7.72;;;4.10;;
57565;SDS011;63999;43.882;-0.310;2022-12-20T15:04:20;9.05;;;4.50;;
57565;SDS011;63999;43.882;-0.310;2022-12-20T15:06:48;8.90;;;4.05;;
57565;SDS011;63999;43.882;-0.310;2022-12-20T15:09:16;6.53;;;4.15;;
57565;SDS011;63999;43.882;-0.310;2022-12-20T15:11:43;6.57;;;4.10;;
57565;SDS011;63999;43.882;-0.310;2022-12-20T15:17:03;8.73;;;4.00;;
57565;SDS011;63999;43.882;-0.310;2022-12-20T15:19:40;8.02;;;4.18;;
57565;SDS011;63999;43.882;-0.310;2022-12-20T15:22:13;5.88;;;3.90;;
57565;SDS011;63999;43.882;-0.310;2022-12-20T15:24:41;6.93;;;3.58;;
57565;SDS011;63999;43.882;-0.310;2022-12-20T15:27:14;6.78;;;4.40;;
57565;SDS011;63999;43.882;-0.310;2022-12-20T15:29:40;10.50;;;5.90;;
57565;SDS011;63999;43.882;-0.310;2022-12-20T15:34:42;7.97;;;4.35;;
57565;SDS011;63999;43.882;-0.310;2022-12-20T15:37:08;12.65;;;4.93;;
57565;SDS011;63999;43.882;-0.310;2022-12-20T15:39:39;8.95;;;4.63;;
57565;SDS011;63999;43.882;-0.310;2022-12-20T15:42:20;7.78;;;3.95;;
57565;SDS011;63999;43.882;-0.310;2022-12-20T15:45:02;9.48;;;4.20;;
57565;SDS011;63999;43.882;-0.310;2022-12-20T15:47:28;10.18;;;4.00;;
57565;SDS011;63999;43.882;-0.310;2022-12-20T15:49:54;6.63;;;4.22;;
57565;SDS011;63999;43.882;-0.310;2022-12-20T15:52:21;9.88;;;5.07;;
57565;SDS011;63999;43.882;-0.310;2022-12-20T15:54:48;9.70;;;5.60;;
57565;SDS011;63999;43.882;-0.310;2022-12-20T15:57:14;7.78;;;4.57;;
57565;SDS011;63999;43.882;-0.310;2022-12-20T15:59:45;9.52;;;5.13;;
57565;SDS011;63999;43.882;-0.310;2022-12-20T16:02:21;10.52;;;5.30;;
57565;SDS011;63999;43.882;-0.310;2022-12-20T16:04:51;10.85;;;5.20;;
57565;SDS011;63999;43.882;-0.310;2022-12-20T16:07:20;8.45;;;4.70;;
57565;SDS011;63999;43.882;-0.310;2022-12-20T16:09:47;9.77;;;4.43;;
57565;SDS011;63999;43.882;-0.310;2022-12-20T16:12:16;10.70;;;4.45;;
57565;SDS011;63999;43.882;-0.310;2022-12-20T16:14:45;10.65;;;5.00;;
57565;SDS011;63999;43.882;-0.310;2022-12-20T16:17:13;8.15;;;5.03;;
57565;SDS011;63999;43.882;-0.310;2022-12-20T16:19:48;9.57;;;4.80;;
57565;SDS011;63999;43.882;-0.310;2022-12-20T16:22:16;12.50;;;6.05;;
57565;SDS011;63999;43.882;-0.310;2022-12-20T16:24:46;10.55;;;5.05;;
57565;SDS011;63999;43.882;-0.310;2022-12-20T16:27:12;8.20;;;5.30;;
57565;SDS011;63999;43.882;-0.310;2022-12-20T16:29:38;8.63;;;3.88;;
57565;SDS011;63999;43.882;-0.310;2022-12-20T16:32:15;9.13;;;3.70;;
57565;SDS011;63999;43.882;-0.310;2022-12-20T16:34:42;8.45;;;3.80;;
57565;SDS011;63999;43.882;-0.310;2022-12-20T16:37:08;10.45;;;4.55;;
57565;SDS011;63999;43.882;-0.310;2022-12-20T16:39:35;5.75;;;3.70;;
57565;SDS011;63999;43.882;-0.310;2022-12-20T16:42:01;10.35;;;5.47;;
57565;SDS011;63999;43.882;-0.310;2022-12-20T16:44:27;9.63;;;5.90;;
57565;SDS011;63999;43.882;-0.310;2022-12-20T16:46:53;10.73;;;5.43;;
57565;SDS011;63999;43.882;-0.310;2022-12-20T16:49:18;13.27;;;5.50;;
57565;SDS011;63999;43.882;-0.310;2022-12-20T16:51:45;8.88;;;4.90;;
57565;SDS011;63999;43.882;-0.310;2022-12-20T16:54:13;13.82;;;4.45;;
57565;SDS011;63999;43.882;-0.310;2022-12-20T16:56:40;10.98;;;4.88;;
57565;SDS011;63999;43.882;-0.310;2022-12-20T16:59:08;8.30;;;4.35;;
57565;SDS011;63999;43.882;-0.310;2022-12-20T17:01:34;10.20;;;6.00;;
57565;SDS011;63999;43.882;-0.310;2022-12-20T17:04:02;12.27;;;5.45;;
57565;SDS011;63999;43.882;-0.310;2022-12-20T17:06:29;10.80;;;5.70;;